Time;durP1;ratioP1;P1;durP2;ratioP2;P2;SDS_P1;SDS_P2;PMS_P1;PMS_P2;Temp;Humidity;BMP_temperature;BMP_pressure;BME280_temperature;BME280_humidity;BME280_pressure;Samples;Min_cycle;Max_cycle;Signal;HPM_P1;HPM_P2
2022/02/21 00:00:07;;;;;;;51.20;6.32;;;6.40;99.90;;;;;;5035148;28;20044;-70
2022/02/21 00:02:33;;;;;;;51.35;6.32;;;6.40;99.90;;;;;;5035452;28;20033;-70
2022/02/21 00:04:58;;;;;;;56.22;5.65;;;6.30;99.90;;;;;;5035045;28;20503;-70
2022/02/21 00:07:24;;;;;;;34.38;4.57;;;6.30;99.90;;;;;;5034844;28;20025;-70
2022/02/21 00:09:49;;;;;;;52.47;5.72;;;6.20;99.90;;;;;;5034892;28;20032;-70
2022/02/21 00:12:15;;;;;;;40.13;5.10;;;6.20;99.90;;;;;;5035014;28;20092;-70
2022/02/21 00:14:41;;;;;;;51.42;5.32;;;6.20;99.90;;;;;;5034868;28;20025;-70
2022/02/21 00:17:07;;;;;;;45.78;6.70;;;6.20;99.90;;;;;;5035392;28;20362;-70
2022/02/21 00:19:32;;;;;;;59.75;5.50;;;6.20;99.90;;;;;;5035060;28;20075;-70
2022/02/21 00:21:58;;;;;;;60.85;7.93;;;6.20;99.90;;;;;;5034982;28;20043;-70
2022/02/21 00:24:23;;;;;;;72.25;8.77;;;6.20;99.90;;;;;;5034714;28;20048;-70
2022/02/21 00:26:49;;;;;;;78.10;9.55;;;6.20;99.90;;;;;;5034672;28;20026;-70
2022/02/21 00:29:14;;;;;;;97.18;10.20;;;6.20;99.90;;;;;;5035134;28;20373;-70
2022/02/21 00:31:40;;;;;;;58.00;6.32;;;6.10;99.90;;;;;;5034260;28;20029;-70
2022/02/21 00:34:05;;;;;;;62.17;7.93;;;6.00;99.90;;;;;;5034580;28;20025;-70
2022/02/21 00:36:31;;;;;;;55.13;6.10;;;6.00;99.90;;;;;;5034667;28;20021;-70
2022/02/21 00:38:58;;;;;;;56.47;6.15;;;5.90;99.90;;;;;;5035163;28;20436;-70
2022/02/21 00:41:23;;;;;;;55.20;4.55;;;5.80;99.90;;;;;;5034529;28;20025;-70
2022/02/21 00:43:49;;;;;;;46.45;4.40;;;5.80;99.90;;;;;;5034768;28;20075;-70
2022/02/21 00:46:14;;;;;;;55.13;4.75;;;5.80;99.90;;;;;;5034396;28;20029;-70
2022/02/21 00:48:40;;;;;;;50.50;4.93;;;5.70;99.90;;;;;;5034421;28;20381;-70
2022/02/21 00:51:05;;;;;;;54.95;6.03;;;5.70;99.90;;;;;;5034321;28;20083;-70
2022/02/21 00:53:31;;;;;;;29.17;4.82;;;5.70;99.90;;;;;;5034374;28;20029;-70
2022/02/21 00:55:56;;;;;;;13.82;2.50;;;5.50;99.90;;;;;;5034669;28;20091;-70
2022/02/21 00:58:22;;;;;;;18.77;3.78;;;5.30;99.90;;;;;;5034087;28;20029;-70
2022/02/21 01:00:48;;;;;;;27.88;3.65;;;5.30;99.90;;;;;;5034332;28;20417;-70
2022/02/21 01:03:14;;;;;;;36.92;3.75;;;5.20;99.90;;;;;;5016396;28;20401;-70
2022/02/21 01:05:40;;;;;;;48.25;5.47;;;5.30;99.90;;;;;;5034082;28;20018;-70
2022/02/21 01:08:08;;;;;;;32.72;4.78;;;5.40;99.90;;;;;;5034015;28;20028;-70
2022/02/21 01:10:38;;;;;;;38.00;5.53;;;5.40;99.90;;;;;;5034645;28;20373;-71
2022/02/21 01:13:05;;;;;;;47.28;5.88;;;5.50;99.90;;;;;;5034324;28;20025;-71
2022/02/21 01:15:30;;;;;;;41.03;5.72;;;5.50;99.90;;;;;;5033996;28;20515;-71
2022/02/21 01:17:56;;;;;;;57.25;6.00;;;5.50;99.90;;;;;;5033912;28;20041;-71
2022/02/21 01:20:22;;;;;;;61.35;7.88;;;5.40;99.90;;;;;;5034274;28;20025;-71
2022/02/21 01:22:47;;;;;;;66.25;6.65;;;5.40;99.90;;;;;;5033930;28;20037;-71
2022/02/21 01:25:13;;;;;;;40.15;5.15;;;5.30;99.90;;;;;;5033901;28;20021;-71
2022/02/21 01:27:39;;;;;;;48.60;5.07;;;5.20;99.90;;;;;;5033679;28;20026;-71
2022/02/21 01:30:07;;;;;;;42.42;5.15;;;5.10;99.90;;;;;;5033870;28;20029;-71
2022/02/21 01:32:33;;;;;;;29.00;4.07;;;5.00;99.90;;;;;;5033844;28;20378;-70
2022/02/21 01:34:59;;;;;;;46.30;4.13;;;5.00;99.90;;;;;;5033997;28;20454;-70
2022/02/21 01:37:24;;;;;;;43.78;5.80;;;4.90;99.90;;;;;;5034251;28;20087;-71
2022/02/21 01:39:50;;;;;;;40.25;5.90;;;5.00;99.90;;;;;;5034064;28;20109;-71
2022/02/21 01:42:15;;;;;;;50.05;7.13;;;5.00;99.90;;;;;;5033772;28;20505;-71
2022/02/21 01:44:43;;;;;;;39.63;6.10;;;5.10;99.90;;;;;;5037969;28;20474;-71
2022/02/21 01:47:12;;;;;;;70.85;7.22;;;5.20;99.90;;;;;;5037702;28;20030;-71
2022/02/21 01:49:38;;;;;;;82.47;10.25;;;5.20;99.90;;;;;;5037725;28;20026;-70
2022/02/21 01:52:05;;;;;;;68.00;11.32;;;5.30;99.90;;;;;;5038475;28;20029;-71
2022/02/21 01:54:32;;;;;;;86.50;8.82;;;5.40;99.90;;;;;;5037716;28;20033;-71
2022/02/21 01:56:58;;;;;;;72.60;8.02;;;5.40;99.90;;;;;;5037528;28;20036;-71
2022/02/21 01:59:24;;;;;;;35.47;5.55;;;5.40;99.90;;;;;;5037944;28;20474;-71
2022/02/21 02:01:51;;;;;;;24.60;4.68;;;5.10;99.90;;;;;;5038093;28;20030;-71
2022/02/21 02:04:16;;;;;;;45.58;5.22;;;5.00;99.90;;;;;;5037774;28;20026;-71
2022/02/21 02:06:42;;;;;;;37.92;8.40;;;4.90;99.90;;;;;;5037475;28;20036;-71
2022/02/21 02:09:08;;;;;;;56.03;8.13;;;5.00;99.90;;;;;;5037395;28;20032;-71
2022/02/21 02:11:36;;;;;;;51.67;5.90;;;5.00;99.90;;;;;;5037419;28;20025;-71
2022/02/21 02:14:02;;;;;;;58.17;7.82;;;5.10;99.90;;;;;;5037495;28;20527;-71
2022/02/21 02:16:28;;;;;;;56.53;6.15;;;5.20;99.90;;;;;;5019564;28;20065;-71
2022/02/21 02:18:53;;;;;;;51.05;7.13;;;5.10;99.90;;;;;;5037757;28;20052;-71
2022/02/21 02:21:21;;;;;;;46.75;7.80;;;5.10;99.90;;;;;;5037359;28;20504;-71
2022/02/21 02:23:50;;;;;;;73.57;7.82;;;5.10;99.90;;;;;;5037595;28;20157;-71
2022/02/21 02:26:20;;;;;;;59.72;9.30;;;5.10;99.90;;;;;;5037162;28;20029;-71
2022/02/21 02:28:49;;;;;;;74.85;7.40;;;5.20;99.90;;;;;;5037210;28;20026;-71
2022/02/21 02:31:15;;;;;;;56.10;8.43;;;5.20;99.90;;;;;;5037249;28;20029;-71
2022/02/21 02:33:41;;;;;;;51.13;6.97;;;5.20;99.90;;;;;;5037122;28;20021;-71
2022/02/21 02:36:08;;;;;;;54.58;6.65;;;5.20;99.90;;;;;;5037063;28;20053;-71
2022/02/21 02:38:38;;;;;;;47.47;6.85;;;5.20;99.90;;;;;;5036966;28;20032;-71
2022/02/21 02:41:05;;;;;;;50.67;7.65;;;5.20;99.90;;;;;;5036849;28;20025;-71
2022/02/21 02:43:31;;;;;;;55.05;9.02;;;5.30;99.90;;;;;;5037012;28;20100;-71
2022/02/21 02:45:57;;;;;;;43.65;8.70;;;5.30;99.90;;;;;;5037208;28;20033;-71
2022/02/21 02:48:22;;;;;;;54.20;8.90;;;5.30;99.90;;;;;;5036623;28;20362;-71
2022/02/21 02:50:48;;;;;;;39.05;4.85;;;5.20;99.90;;;;;;5036716;28;20113;-71
2022/02/21 02:53:13;;;;;;;54.83;6.20;;;5.10;99.90;;;;;;5036801;28;20449;-71
2022/02/21 02:55:39;;;;;;;45.42;6.60;;;4.90;99.90;;;;;;5035415;28;20081;-70
2022/02/21 03:00:31;;;;;;;38.80;7.20;;;4.70;99.90;;;;;;5108603;22;20099;-73
2022/02/21 03:02:56;;;;;;;30.45;4.18;;;4.50;99.90;;;;;;5038162;28;20388;-73
2022/02/21 03:05:22;;;;;;;19.60;3.65;;;4.40;99.90;;;;;;5055882;28;20036;-73
2022/02/21 03:07:47;;;;;;;23.85;3.13;;;4.20;99.90;;;;;;5056186;28;20021;-73
2022/02/21 03:10:13;;;;;;;22.83;3.92;;;4.10;99.90;;;;;;5056060;28;20021;-73
2022/02/21 03:12:38;;;;;;;26.27;4.20;;;4.00;99.90;;;;;;5056109;28;20025;-73
2022/02/21 03:15:04;;;;;;;31.45;3.65;;;4.10;99.90;;;;;;5055842;28;20021;-72
2022/02/21 03:17:30;;;;;;;35.45;4.93;;;4.00;99.90;;;;;;5055762;28;20484;-73
2022/02/21 03:19:55;;;;;;;30.00;4.45;;;3.90;99.90;;;;;;5055662;28;20036;-73
2022/02/21 03:22:21;;;;;;;37.03;6.00;;;3.80;99.90;;;;;;5056060;28;20036;-73
2022/02/21 03:24:46;;;;;;;41.22;4.65;;;3.80;99.90;;;;;;5055680;28;20025;-74
2022/02/21 03:27:12;;;;;;;60.72;5.35;;;3.80;99.90;;;;;;5037732;28;20038;-74
2022/02/21 03:29:38;;;;;;;47.47;4.53;;;3.90;99.90;;;;;;5037737;28;20029;-74
2022/02/21 03:32:04;;;;;;;46.63;5.45;;;3.90;99.90;;;;;;5055669;28;20033;-74
2022/02/21 03:34:30;;;;;;;22.83;3.03;;;3.90;99.90;;;;;;5055655;28;20029;-74
2022/02/21 03:36:55;;;;;;;23.00;3.08;;;3.80;99.90;;;;;;5037684;28;20021;-74
2022/02/21 03:39:21;;;;;;;40.55;3.60;;;3.70;99.90;;;;;;5055381;28;20481;-74
2022/02/21 03:41:46;;;;;;;28.23;4.57;;;3.60;99.90;;;;;;5055573;28;20079;-74
2022/02/21 03:44:12;;;;;;;22.58;3.00;;;3.50;99.90;;;;;;5055324;28;20033;-74
2022/02/21 03:46:41;;;;;;;31.83;4.07;;;3.40;99.90;;;;;;5055531;28;20035;-74
2022/02/21 03:49:07;;;;;;;37.63;4.97;;;3.40;99.90;;;;;;5037478;28;20104;-75
2022/02/21 03:51:33;;;;;;;28.48;3.80;;;3.50;99.90;;;;;;5055221;28;20116;-74
2022/02/21 03:53:58;;;;;;;37.83;4.80;;;3.50;99.90;;;;;;5055567;28;20442;-74
2022/02/21 03:56:26;;;;;;;47.35;4.55;;;3.60;99.90;;;;;;5055191;28;20029;-74
2022/02/21 03:58:52;;;;;;;39.35;6.47;;;3.60;99.90;;;;;;5055177;28;20108;-74
2022/02/21 04:01:18;;;;;;;37.90;4.70;;;3.50;99.90;;;;;;5055225;28;20484;-74
2022/02/21 04:03:43;;;;;;;26.80;4.55;;;3.50;99.90;;;;;;5054986;28;20107;-75
2022/02/21 04:06:09;;;;;;;37.72;5.82;;;3.50;99.90;;;;;;5054997;28;20484;-75
2022/02/21 04:08:34;;;;;;;30.08;4.57;;;3.50;99.90;;;;;;5055054;28;20025;-75
2022/02/21 04:11:00;;;;;;;30.63;4.38;;;3.50;99.90;;;;;;5054910;28;20477;-75
2022/02/21 04:13:25;;;;;;;52.45;6.00;;;3.40;99.90;;;;;;5037151;28;20029;-74
2022/02/21 04:15:51;;;;;;;74.15;9.27;;;3.50;99.90;;;;;;5054785;28;20025;-74
2022/02/21 04:18:17;;;;;;;70.43;6.63;;;3.60;99.90;;;;;;5036923;28;20047;-74
2022/02/21 04:20:42;;;;;;;61.05;7.82;;;3.70;99.90;;;;;;5054691;28;20076;-74
2022/02/21 04:23:08;;;;;;;71.10;9.13;;;3.80;99.90;;;;;;5036801;28;20473;-75
2022/02/21 04:25:33;;;;;;;68.90;8.23;;;3.80;99.90;;;;;;5054412;28;20033;-75
2022/02/21 04:27:59;;;;;;;60.33;7.05;;;3.90;99.90;;;;;;5054413;28;20024;-75
2022/02/21 04:30:27;;;;;;;76.40;8.65;;;3.90;99.90;;;;;;5036553;28;20388;-75
2022/02/21 04:32:53;;;;;;;70.38;7.95;;;4.10;99.90;;;;;;5054556;28;20031;-75
2022/02/21 04:35:22;;;;;;;88.10;10.68;;;4.10;99.90;;;;;;5054204;28;20104;-75
2022/02/21 04:37:48;;;;;;;64.97;8.00;;;4.20;99.90;;;;;;5054169;28;20025;-75
2022/02/21 04:40:20;;;;;;;58.35;8.13;;;4.10;99.90;;;;;;5054353;28;20098;-75
2022/02/21 04:42:48;;;;;;;45.67;6.63;;;4.00;99.90;;;;;;5036273;28;20029;-75
2022/02/21 04:45:14;;;;;;;51.17;6.43;;;3.90;99.90;;;;;;5054093;28;20417;-75
2022/02/21 04:47:40;;;;;;;43.10;8.45;;;3.80;99.90;;;;;;5053985;28;20472;-75
2022/02/21 04:50:07;;;;;;;50.60;6.57;;;3.70;99.90;;;;;;5054446;28;20043;-75
2022/02/21 04:52:34;;;;;;;47.05;7.50;;;3.70;99.90;;;;;;5036042;28;20017;-75
2022/02/21 04:54:59;;;;;;;45.63;7.20;;;3.70;99.90;;;;;;5035998;28;20388;-75
2022/02/21 04:57:25;;;;;;;65.45;7.95;;;3.70;99.90;;;;;;5053880;28;20025;-75
2022/02/21 04:59:51;;;;;;;49.90;7.82;;;3.70;99.90;;;;;;5053670;28;20043;-75
2022/02/21 05:02:16;;;;;;;52.10;6.68;;;3.70;99.90;;;;;;5054046;28;20031;-74
2022/02/21 05:04:42;;;;;;;59.75;6.53;;;3.80;99.90;;;;;;5053765;28;20036;-75
2022/02/21 05:07:07;;;;;;;41.25;5.05;;;3.80;99.90;;;;;;5053868;28;20465;-75
2022/02/21 05:09:33;;;;;;;45.20;6.55;;;3.80;99.90;;;;;;5053579;28;20052;-74
2022/02/21 05:11:58;;;;;;;56.80;8.73;;;3.80;99.90;;;;;;5054178;28;20373;-74
2022/02/21 05:14:24;;;;;;;65.50;10.45;;;4.00;99.90;;;;;;5053551;28;20021;-74
2022/02/21 05:16:51;;;;;;;72.97;9.23;;;4.00;99.90;;;;;;5053447;28;20032;-74
2022/02/21 05:19:17;;;;;;;75.72;9.68;;;4.10;99.90;;;;;;5053157;28;20032;-74
2022/02/21 05:21:43;;;;;;;74.85;10.38;;;4.20;99.90;;;;;;5053452;28;20025;-74
2022/02/21 05:24:08;;;;;;;59.97;11.38;;;4.10;99.90;;;;;;5035588;28;20061;-74
2022/02/21 05:26:34;;;;;;;104.03;12.63;;;4.10;99.90;;;;;;5053300;28;20088;-74
2022/02/21 05:28:59;;;;;;;69.18;11.40;;;4.00;99.90;;;;;;5035432;28;20071;-73
2022/02/21 05:31:25;;;;;;;93.13;9.23;;;4.00;99.90;;;;;;5053299;28;20027;-73
2022/02/21 05:33:51;;;;;;;82.68;10.82;;;3.90;99.90;;;;;;5053351;28;20056;-73
2022/02/21 05:36:17;;;;;;;76.93;10.68;;;4.00;99.90;;;;;;5053323;28;20074;-75
2022/02/21 05:38:44;;;;;;;80.68;10.13;;;4.00;99.90;;;;;;5053170;28;20036;-75
2022/02/21 05:41:10;;;;;;;79.72;11.65;;;4.10;99.90;;;;;;5053240;28;20029;-75
2022/02/21 05:43:36;;;;;;;60.40;8.40;;;4.20;99.90;;;;;;5053175;28;20025;-75
2022/02/21 05:46:03;;;;;;;54.33;8.32;;;4.10;99.90;;;;;;5053410;28;20033;-75
2022/02/21 05:48:28;;;;;;;58.33;8.85;;;4.10;99.90;;;;;;5053079;28;20017;-75
2022/02/21 05:50:54;;;;;;;52.67;7.38;;;4.10;99.90;;;;;;5053183;28;20044;-75
2022/02/21 05:53:19;;;;;;;62.35;8.85;;;4.20;99.90;;;;;;5053713;28;20170;-75
2022/02/21 05:55:45;;;;;;;51.13;7.47;;;4.20;99.90;;;;;;5035130;28;20067;-75
2022/02/21 05:58:11;;;;;;;74.25;9.02;;;4.20;99.90;;;;;;5052886;28;20046;-75
2022/02/21 06:00:36;;;;;;;83.45;8.98;;;4.20;99.90;;;;;;5052954;28;20033;-75
2022/02/21 06:03:02;;;;;;;79.38;8.60;;;4.10;99.90;;;;;;5053011;28;20404;-75
2022/02/21 06:05:27;;;;;;;55.67;8.23;;;4.10;99.90;;;;;;5053242;28;20481;-75
2022/02/21 06:07:53;;;;;;;55.08;8.45;;;4.10;99.90;;;;;;5053028;28;20048;-75
2022/02/21 06:10:19;;;;;;;48.65;8.80;;;4.10;99.90;;;;;;5052837;28;20493;-75
2022/02/21 06:12:45;;;;;;;72.28;8.60;;;4.20;99.90;;;;;;5053524;28;20342;-75
2022/02/21 06:15:10;;;;;;;56.38;7.57;;;4.20;99.90;;;;;;5052901;28;20094;-75
2022/02/21 06:17:36;;;;;;;58.20;7.20;;;4.20;99.90;;;;;;5053158;28;20021;-75
2022/02/21 06:20:02;;;;;;;73.07;8.20;;;4.20;99.90;;;;;;5052853;28;20029;-73
2022/02/21 06:22:27;;;;;;;53.65;7.75;;;4.20;99.90;;;;;;5053126;28;20564;-73
2022/02/21 06:24:53;;;;;;;51.78;7.75;;;4.20;99.90;;;;;;5035041;28;20396;-73
2022/02/21 06:27:18;;;;;;;60.00;6.93;;;4.10;99.90;;;;;;5052818;28;20025;-73
2022/02/21 06:29:44;;;;;;;76.88;10.82;;;4.20;99.90;;;;;;5055809;28;20060;-73
2022/02/21 06:32:10;;;;;;;49.42;7.40;;;4.30;99.90;;;;;;5056729;28;20016;-73
2022/02/21 06:34:35;;;;;;;72.05;8.82;;;4.40;99.90;;;;;;5057144;28;20029;-73
2022/02/21 06:37:01;;;;;;;53.22;9.32;;;4.30;99.90;;;;;;5056536;28;20029;-73
2022/02/21 06:39:26;;;;;;;60.17;9.23;;;4.30;99.90;;;;;;5056722;28;20032;-73
2022/02/21 06:41:52;;;;;;;75.13;10.63;;;4.20;99.90;;;;;;5056399;28;20021;-73
2022/02/21 06:44:17;;;;;;;67.47;8.65;;;4.20;99.90;;;;;;5056387;28;20384;-73
2022/02/21 06:46:44;;;;;;;53.38;7.85;;;4.30;99.90;;;;;;5056988;28;20029;-73
2022/02/21 06:49:10;;;;;;;70.60;10.13;;;4.30;99.90;;;;;;5056272;28;20021;-73
2022/02/21 06:51:36;;;;;;;56.63;8.15;;;4.20;99.90;;;;;;5056477;28;20074;-72
2022/02/21 06:54:03;;;;;;;52.33;9.25;;;4.00;99.90;;;;;;5056252;28;20017;-72
2022/02/21 06:56:29;;;;;;;47.92;7.00;;;3.80;99.90;;;;;;5056449;28;20064;-72
2022/02/21 06:58:54;;;;;;;59.58;8.27;;;3.70;99.90;;;;;;5055906;28;20037;-73
2022/02/21 07:01:20;;;;;;;37.85;5.68;;;3.60;99.90;;;;;;5056048;28;20365;-73
2022/02/21 07:03:45;;;;;;;35.67;4.93;;;3.60;99.90;;;;;;5055985;28;20449;-73
2022/02/21 07:06:11;;;;;;;45.67;6.57;;;3.60;99.90;;;;;;5055848;28;20505;-73
2022/02/21 07:08:36;;;;;;;43.15;7.32;;;3.60;99.90;;;;;;5055882;28;20029;-73
2022/02/21 07:11:02;;;;;;;52.58;5.65;;;3.80;99.90;;;;;;5055816;28;20029;-73
2022/02/21 07:13:29;;;;;;;41.55;6.60;;;3.90;99.90;;;;;;5055772;28;20104;-73
2022/02/21 07:15:55;;;;;;;38.92;6.88;;;3.90;99.90;;;;;;5055735;28;20017;-74
2022/02/21 07:18:23;;;;;;;58.83;7.18;;;3.90;99.90;;;;;;5055660;28;20051;-74
2022/02/21 07:20:48;;;;;;;67.38;8.35;;;3.90;99.90;;;;;;5055659;28;20028;-74
2022/02/21 07:23:14;;;;;;;56.05;6.82;;;3.90;99.90;;;;;;5055839;28;20029;-74
2022/02/21 07:25:39;;;;;;;53.03;6.65;;;4.00;99.90;;;;;;5055525;28;20035;-73
2022/02/21 07:28:06;;;;;;;31.77;5.57;;;4.00;99.90;;;;;;5055526;28;20384;-73
2022/02/21 07:30:33;;;;;;;44.47;6.25;;;4.00;99.90;;;;;;5055834;28;20017;-73
2022/02/21 07:32:59;;;;;;;37.97;5.38;;;3.90;99.90;;;;;;5055486;28;20017;-73
2022/02/21 07:35:25;;;;;;;47.55;5.30;;;3.90;99.90;;;;;;5037527;28;20070;-73
2022/02/21 07:37:50;;;;;;;37.17;5.25;;;3.80;99.90;;;;;;5055417;28;20102;-73
2022/02/21 07:40:16;;;;;;;42.60;7.63;;;3.80;99.90;;;;;;5054766;28;20473;-73
2022/02/21 07:42:49;;;;;;;44.83;5.18;;;3.80;99.90;;;;;;5037416;28;20029;-73
2022/02/21 07:45:16;;;;;;;33.85;6.15;;;3.70;99.90;;;;;;5055246;28;20035;-73
2022/02/21 07:47:47;;;;;;;46.42;6.07;;;3.80;99.90;;;;;;5055097;28;20029;-73
2022/02/21 07:50:13;;;;;;;30.05;4.70;;;3.80;99.90;;;;;;5055282;28;20021;-73
2022/02/21 07:52:39;;;;;;;35.28;5.03;;;4.00;99.90;;;;;;5055080;28;20025;-73
2022/02/21 07:55:05;;;;;;;42.00;6.57;;;3.90;99.90;;;;;;5054945;28;20033;-73
2022/02/21 07:57:30;;;;;;;50.63;7.07;;;3.90;99.90;;;;;;5054886;28;20029;-73
2022/02/21 07:59:57;;;;;;;61.25;8.05;;;4.00;99.90;;;;;;5054759;28;20040;-73
2022/02/21 08:02:23;;;;;;;48.33;5.78;;;4.00;99.90;;;;;;5054978;28;20031;-73
2022/02/21 08:04:49;;;;;;;46.45;5.85;;;4.20;99.90;;;;;;5054784;28;20025;-73
2022/02/21 08:07:14;;;;;;;39.50;6.38;;;4.30;99.90;;;;;;5054647;28;20035;-73
2022/02/21 08:09:40;;;;;;;46.67;5.65;;;4.30;99.90;;;;;;5054481;28;20071;-73
2022/02/21 08:12:07;;;;;;;53.00;6.70;;;4.30;99.90;;;;;;5054655;28;20029;-73
2022/02/21 08:14:33;;;;;;;39.40;5.82;;;4.30;99.90;;;;;;5036744;28;20025;-73
2022/02/21 08:16:59;;;;;;;50.33;5.32;;;4.30;99.90;;;;;;5036692;28;20025;-73
2022/02/21 08:19:25;;;;;;;44.97;4.93;;;4.30;99.90;;;;;;5054370;28;20029;-74
2022/02/21 08:21:52;;;;;;;53.33;6.70;;;4.30;99.90;;;;;;5055025;28;20082;-73
2022/02/21 08:24:18;;;;;;;38.65;5.60;;;4.40;99.90;;;;;;5054455;28;20107;-73
2022/02/21 08:26:44;;;;;;;42.20;5.15;;;4.40;99.90;;;;;;5054348;28;20021;-73
2022/02/21 08:29:09;;;;;;;37.60;5.07;;;4.40;99.90;;;;;;5054237;28;20025;-74
2022/02/21 08:31:35;;;;;;;28.83;3.42;;;4.40;99.90;;;;;;5036474;28;20053;-74
2022/02/21 08:34:00;;;;;;;33.28;3.50;;;4.40;99.90;;;;;;5054586;28;20021;-74
2022/02/21 08:36:27;;;;;;;32.53;4.25;;;4.30;99.90;;;;;;5054770;28;20369;-74
2022/02/21 08:38:53;;;;;;;28.98;3.47;;;4.40;99.90;;;;;;5054197;28;20048;-74
2022/02/21 08:41:19;;;;;;;21.67;3.08;;;4.40;99.90;;;;;;5054734;28;20376;-74
2022/02/21 08:43:45;;;;;;;24.23;3.17;;;4.50;99.90;;;;;;5054115;28;20025;-74
2022/02/21 08:46:11;;;;;;;23.40;5.15;;;4.60;99.90;;;;;;5036176;28;20063;-75
2022/02/21 08:48:37;;;;;;;30.70;3.05;;;4.80;99.90;;;;;;5054463;28;20025;-74
2022/02/21 08:51:03;;;;;;;19.65;2.40;;;5.00;99.90;;;;;;5054215;28;20183;-75
2022/02/21 08:53:29;;;;;;;27.08;4.35;;;5.00;99.90;;;;;;5053087;28;20025;-73
2022/02/21 08:55:54;;;;;;;23.50;3.58;;;4.90;99.90;;;;;;5053986;28;20050;-73
2022/02/21 08:58:20;;;;;;;27.02;3.28;;;4.90;99.90;;;;;;5053721;28;20029;-74
2022/02/21 09:00:46;;;;;;;26.10;4.03;;;4.80;99.90;;;;;;5055101;28;20040;-74
2022/02/21 09:03:11;;;;;;;25.27;4.05;;;4.80;99.90;;;;;;5054263;28;20354;-73
2022/02/21 09:05:37;;;;;;;28.92;4.65;;;4.80;99.90;;;;;;5053716;28;20411;-73
2022/02/21 09:08:04;;;;;;;31.25;5.28;;;5.00;99.90;;;;;;5053683;28;20025;-73
2022/02/21 09:10:30;;;;;;;27.10;3.90;;;5.30;99.90;;;;;;5053701;28;20496;-73
2022/02/21 09:12:56;;;;;;;31.13;4.20;;;5.50;99.90;;;;;;5053580;28;20029;-74
2022/02/21 09:15:23;;;;;;;30.65;4.65;;;5.60;99.90;;;;;;5053794;28;20028;-74
2022/02/21 09:17:48;;;;;;;37.38;5.75;;;5.70;99.90;;;;;;5053486;28;20074;-73
2022/02/21 09:20:15;;;;;;;23.83;4.30;;;5.70;99.90;;;;;;5053418;28;20095;-73
2022/02/21 09:22:41;;;;;;;52.03;5.95;;;5.60;99.90;;;;;;5053428;28;20027;-73
2022/02/21 09:25:07;;;;;;;48.42;6.03;;;5.50;99.90;;;;;;5053733;28;20029;-74
2022/02/21 09:27:32;;;;;;;38.20;6.13;;;5.60;99.90;;;;;;5053545;28;20469;-73
2022/02/21 09:29:58;;;;;;;41.28;7.38;;;5.70;99.90;;;;;;5053352;28;20032;-74
2022/02/21 09:32:23;;;;;;;46.67;6.93;;;5.80;99.90;;;;;;5053306;28;20021;-74
2022/02/21 09:34:49;;;;;;;51.80;5.85;;;6.00;99.90;;;;;;5053347;28;20477;-74
2022/02/21 09:37:15;;;;;;;42.08;7.05;;;5.90;99.90;;;;;;5053308;28;20108;-73
2022/02/21 09:39:40;;;;;;;59.95;6.70;;;5.80;99.90;;;;;;5053256;28;20079;-73
2022/02/21 09:42:06;;;;;;;57.63;8.88;;;5.70;99.90;;;;;;5053179;28;20029;-73
2022/02/21 09:44:32;;;;;;;58.55;7.97;;;5.50;99.90;;;;;;5053826;28;20496;-73
2022/02/21 09:46:57;;;;;;;69.85;9.13;;;5.30;99.90;;;;;;5053238;28;20071;-73
2022/02/21 09:49:23;;;;;;;66.22;10.50;;;5.00;99.90;;;;;;5053725;28;20021;-73
2022/02/21 09:51:49;;;;;;;68.38;8.73;;;5.00;99.90;;;;;;5053448;28;20424;-73
2022/02/21 09:54:15;;;;;;;29.42;5.45;;;5.00;99.90;;;;;;5053154;28;20044;-73
2022/02/21 09:56:43;;;;;;;30.30;5.35;;;4.70;99.90;;;;;;5053748;28;20017;-74
2022/02/21 09:59:10;;;;;;;22.13;4.35;;;4.60;99.90;;;;;;5053009;28;20484;-73
2022/02/21 10:01:37;;;;;;;15.60;2.60;;;4.40;99.90;;;;;;5053054;28;20481;-73
2022/02/21 10:04:03;;;;;;;18.33;2.83;;;4.30;99.90;;;;;;5055090;28;20474;-74
2022/02/21 10:06:30;;;;;;;21.63;2.90;;;4.10;99.90;;;;;;5056940;28;20025;-74
2022/02/21 10:08:57;;;;;;;19.35;2.63;;;4.10;99.90;;;;;;5057013;28;20021;-73
2022/02/21 10:11:34;;;;;;;16.08;2.10;;;4.10;99.90;;;;;;5057055;28;20134;-74
2022/02/21 10:14:08;;;;;;;11.40;1.85;;;4.10;99.90;;;;;;5056881;28;20017;-74
2022/02/21 10:16:44;;;;;;;9.60;1.60;;;4.20;99.90;;;;;;5057163;28;20040;-73
2022/02/21 10:19:17;;;;;;;15.88;1.70;;;4.10;99.90;;;;;;5056804;28;20037;-75
2022/02/21 10:22:10;;;;;;;15.63;3.05;;;4.10;99.90;;;;;;5039019;28;20488;-74
2022/02/21 10:24:38;;;;;;;16.92;2.33;;;4.00;99.90;;;;;;5056777;28;20071;-74
2022/02/21 10:27:19;;;;;;;16.10;2.20;;;4.10;99.90;;;;;;5056631;28;20029;-75
2022/02/21 10:29:51;;;;;;;18.85;3.33;;;4.20;99.90;;;;;;5038667;28;20111;-74
2022/02/21 10:32:47;;;;;;;25.25;3.75;;;4.30;99.90;;;;;;5056671;28;20017;-74
2022/02/21 10:35:17;;;;;;;23.27;3.22;;;4.40;99.90;;;;;;5056840;28;20373;-74
2022/02/21 10:37:44;;;;;;;26.92;5.18;;;4.50;99.90;;;;;;5056767;28;20474;-74
2022/02/21 10:40:11;;;;;;;28.17;4.20;;;4.60;99.90;;;;;;5056419;28;20483;-74
2022/02/21 10:42:38;;;;;;;35.58;4.00;;;4.70;99.90;;;;;;5056465;28;20025;-74
2022/02/21 10:45:16;;;;;;;43.30;5.82;;;4.80;99.90;;;;;;5056461;28;20480;-74
2022/02/21 10:48:01;;;;;;;35.00;5.55;;;4.80;99.90;;;;;;5056978;28;20104;-74
2022/02/21 10:50:29;;;;;;;43.15;5.45;;;4.90;99.90;;;;;;5056455;28;20040;-74
2022/02/21 10:52:54;;;;;;;39.92;5.47;;;4.80;99.90;;;;;;5056197;28;20100;-74
2022/02/21 10:55:20;;;;;;;58.78;6.22;;;4.90;99.90;;;;;;5056243;28;20049;-73
2022/02/21 10:57:47;;;;;;;41.20;5.47;;;4.90;99.90;;;;;;5056353;28;20380;-73
2022/02/21 11:00:14;;;;;;;44.78;6.70;;;4.90;99.90;;;;;;5055907;28;20039;-73
2022/02/21 11:02:41;;;;;;;49.92;8.57;;;4.90;99.90;;;;;;5056023;28;20047;-75
2022/02/21 11:05:11;;;;;;;63.00;6.88;;;4.90;99.90;;;;;;5056298;28;20109;-75
2022/02/21 11:07:41;;;;;;;49.80;7.30;;;4.90;99.90;;;;;;5056116;28;20025;-75
2022/02/21 11:10:08;;;;;;;66.50;7.78;;;4.90;99.90;;;;;;5055812;28;20017;-75
2022/02/21 11:12:37;;;;;;;64.20;7.60;;;4.90;99.90;;;;;;5055770;28;20107;-75
2022/02/21 11:15:04;;;;;;;32.67;5.53;;;4.80;99.90;;;;;;5055011;28;20386;-74
2022/02/21 11:17:29;;;;;;;13.80;3.63;;;4.80;99.90;;;;;;5055600;28;20070;-74
2022/02/21 11:19:55;;;;;;;15.27;2.10;;;4.00;99.90;;;;;;5055933;28;20462;-74
2022/02/21 11:22:21;;;;;;;11.93;2.08;;;3.50;99.90;;;;;;5055649;28;20032;-74
2022/02/21 11:25:11;;;;;;;8.60;1.38;;;3.20;99.90;;;;;;5055632;28;20028;-74
2022/02/21 11:27:39;;;;;;;5.57;1.48;;;3.10;99.90;;;;;;5054903;28;20087;-74
2022/02/21 11:30:10;;;;;;;14.20;1.98;;;3.10;99.90;;;;;;5055472;28;20021;-74
2022/02/21 11:32:40;;;;;;;13.05;1.90;;;3.20;99.90;;;;;;5055449;28;20362;-75
2022/02/21 11:35:16;;;;;;;14.73;2.40;;;3.30;99.90;;;;;;5055752;28;20017;-74
2022/02/21 11:37:42;;;;;;;12.70;2.03;;;3.40;99.90;;;;;;5055470;28;20033;-74
2022/02/21 11:40:08;;;;;;;29.17;4.30;;;3.50;99.90;;;;;;5056191;28;20031;-75
2022/02/21 11:42:35;;;;;;;24.73;4.07;;;3.70;99.90;;;;;;5055237;28;20056;-74
2022/02/21 11:45:03;;;;;;;37.00;3.78;;;3.90;99.90;;;;;;5055962;28;20116;-74
2022/02/21 11:47:40;;;;;;;38.22;4.72;;;4.10;99.90;;;;;;5055102;28;20021;-74
2022/02/21 11:50:17;;;;;;;36.17;4.30;;;4.20;99.90;;;;;;5055181;28;20380;-74
2022/02/21 11:52:48;;;;;;;43.63;5.22;;;4.40;99.90;;;;;;5055425;28;20168;-74
2022/02/21 11:55:29;;;;;;;57.92;4.95;;;4.40;99.90;;;;;;5055601;28;20032;-74
2022/02/21 11:58:18;;;;;;;62.90;5.57;;;4.50;99.90;;;;;;5055239;28;20025;-74
2022/02/21 12:00:50;;;;;;;41.45;4.13;;;4.60;99.90;;;;;;5037541;28;20063;-74
2022/02/21 12:03:18;;;;;;;28.90;3.95;;;4.60;99.90;;;;;;5054877;28;20025;-73
2022/02/21 12:06:04;;;;;;;32.40;5.88;;;4.70;99.90;;;;;;5036904;28;20075;-73
2022/02/21 12:08:30;;;;;;;37.53;5.25;;;4.80;99.90;;;;;;5023282;28;20416;-73
2022/02/21 12:11:04;;;;;;;52.15;7.35;;;4.90;99.90;;;;;;5054776;28;20027;-73
2022/02/21 12:13:36;;;;;;;35.75;3.72;;;4.90;99.90;;;;;;5054725;28;20028;-73
2022/02/21 12:16:10;;;;;;;36.67;4.82;;;5.00;99.90;;;;;;5054938;28;20025;-73
2022/02/21 12:18:39;;;;;;;30.40;4.28;;;5.00;99.90;;;;;;5054580;28;20040;-74
2022/02/21 12:21:30;;;;;;;33.88;3.53;;;5.10;99.90;;;;;;5054863;28;20100;-73
2022/02/21 12:23:56;;;;;;;32.45;3.75;;;5.20;99.90;;;;;;5054869;28;20025;-73
2022/02/21 12:26:39;;;;;;;21.67;3.88;;;5.40;99.90;;;;;;5054597;28;20437;-73
2022/02/21 12:29:19;;;;;;;33.28;4.25;;;5.50;99.90;;;;;;5054363;28;20017;-73
2022/02/21 12:32:01;;;;;;;18.90;2.83;;;5.60;99.90;;;;;;5054683;28;20036;-73
2022/02/21 12:34:34;;;;;;;34.72;3.78;;;5.60;99.90;;;;;;5054121;28;20021;-73
2022/02/21 12:37:02;;;;;;;41.28;4.03;;;5.60;99.90;;;;;;5054345;28;20544;-73
2022/02/21 12:39:33;;;;;;;27.42;3.60;;;5.40;99.90;;;;;;5054449;28;20535;-73
2022/02/21 12:41:59;;;;;;;26.60;3.22;;;5.20;99.90;;;;;;5054191;28;20033;-73
2022/02/21 12:44:25;;;;;;;30.90;3.13;;;5.10;99.90;;;;;;5054490;28;20025;-73
2022/02/21 12:47:04;;;;;;;28.13;2.17;;;5.10;99.90;;;;;;5054625;28;20029;-73